TVS25E LKCS-EDDM
Flight info
| Callsign | TVS25E |
|---|---|
| Flight time | 0h 35m |
| Altitude | 30000 |
| Route | ADLET DCT RENKA L610 STAUB/N0446F290 T700 OSTES/N0449F300 T108 LANDU LANDU2A |
| Aircraft | B738/M-SDE2E3FGHIRWXY/LB1 |
Departure
| Time | 2026-05-06 11:49 |
|---|---|
| Airport | České Budějovice South Bohemian Airport (LKCS) |
Arrival
| Time | 2026-05-06 12:24 |
|---|---|
| Airport | Munich Airport (EDDM) |
| Time | Latitude | Longitude | Altitude | Speed | Heading |
|---|---|---|---|---|---|
| 2026-05-06 11:26 | 48.94940 | 14.43541 | 1395 ft | 0 kts | 38° |
| 2026-05-06 11:44 | 48.94941 | 14.43542 | 1395 ft | 1 kts | 39° |
| 2026-05-06 11:44 | 48.94941 | 14.43556 | 1398 ft | 2 kts | 99° |
| 2026-05-06 11:44 | 48.94925 | 14.43581 | 1393 ft | 4 kts | 156° |
| 2026-05-06 11:44 | 48.94902 | 14.43560 | 1394 ft | 5 kts | 237° |
| 2026-05-06 11:45 | 48.94881 | 14.43515 | 1392 ft | 6 kts | 221° |
| 2026-05-06 11:45 | 48.94839 | 14.43500 | 1394 ft | 7 kts | 184° |
| 2026-05-06 11:45 | 48.94784 | 14.43495 | 1395 ft | 9 kts | 182° |
| 2026-05-06 11:45 | 48.94714 | 14.43498 | 1394 ft | 12 kts | 178° |
| 2026-05-06 11:46 | 48.94643 | 14.43546 | 1393 ft | 12 kts | 110° |
| 2026-05-06 11:46 | 48.94637 | 14.43688 | 1391 ft | 15 kts | 90° |
| 2026-05-06 11:46 | 48.94638 | 14.43867 | 1392 ft | 18 kts | 90° |
| 2026-05-06 11:46 | 48.94639 | 14.44055 | 1391 ft | 17 kts | 89° |
| 2026-05-06 11:47 | 48.94639 | 14.44237 | 1390 ft | 17 kts | 89° |
| 2026-05-06 11:47 | 48.94654 | 14.44384 | 1388 ft | 7 kts | 58° |
| 2026-05-06 11:47 | 48.94660 | 14.44422 | 1388 ft | 3 kts | 90° |
| 2026-05-06 11:47 | 48.94641 | 14.44425 | 1390 ft | 4 kts | 214° |
| 2026-05-06 11:48 | 48.94636 | 14.44369 | 1392 ft | 8 kts | 275° |
| 2026-05-06 11:48 | 48.94639 | 14.44191 | 1389 ft | 36 kts | 270° |
| 2026-05-06 11:48 | 48.94638 | 14.43399 | 1394 ft | 112 kts | 270° |
| 2026-05-06 11:48 | 48.94636 | 14.41883 | 1398 ft | 175 kts | 269° |
| 2026-05-06 11:49 | 48.94635 | 14.39954 | 2081 ft | 185 kts | 268° |
| 2026-05-06 11:49 | 48.94626 | 14.37982 | 3058 ft | 189 kts | 265° |
| 2026-05-06 11:49 | 48.94613 | 14.35954 | 3847 ft | 198 kts | 270° |
| 2026-05-06 11:49 | 48.94902 | 14.33822 | 4510 ft | 217 kts | 295° |
| 2026-05-06 11:50 | 48.95990 | 14.32111 | 4907 ft | 236 kts | 333° |
| 2026-05-06 11:50 | 48.97552 | 14.31403 | 5609 ft | 236 kts | 0° |
| 2026-05-06 11:50 | 48.99118 | 14.32003 | 6244 ft | 236 kts | 35° |
| 2026-05-06 11:50 | 49.00253 | 14.33809 | 6703 ft | 244 kts | 65° |
| 2026-05-06 11:51 | 49.00684 | 14.36393 | 6931 ft | 264 kts | 95° |
| 2026-05-06 11:51 | 49.00289 | 14.39052 | 7899 ft | 252 kts | 117° |
| 2026-05-06 11:51 | 48.99473 | 14.41368 | 8922 ft | 244 kts | 124° |
| 2026-05-06 11:51 | 48.98557 | 14.43611 | 9479 ft | 259 kts | 126° |
| 2026-05-06 11:52 | 48.97555 | 14.45993 | 10013 ft | 271 kts | 124° |
| 2026-05-06 11:52 | 48.96674 | 14.48469 | 11054 ft | 259 kts | 121° |
| 2026-05-06 11:52 | 48.95613 | 14.50580 | 11828 ft | 254 kts | 148° |
| 2026-05-06 11:52 | 48.93908 | 14.51542 | 11871 ft | 274 kts | 180° |
| 2026-05-06 11:53 | 48.92057 | 14.51050 | 12695 ft | 264 kts | 201° |
| 2026-05-06 11:53 | 48.90419 | 14.50013 | 13951 ft | 249 kts | 205° |
| 2026-05-06 11:53 | 48.88826 | 14.48901 | 14526 ft | 258 kts | 206° |
| 2026-05-06 11:53 | 48.87137 | 14.47751 | 14704 ft | 281 kts | 203° |
| 2026-05-06 11:54 | 48.85877 | 14.46982 | 14826 ft | 296 kts | 202° |
| 2026-05-06 11:54 | 48.83208 | 14.45418 | 15037 ft | 324 kts | 202° |
| 2026-05-06 11:54 | 48.81757 | 14.44573 | 15133 ft | 338 kts | 202° |
| 2026-05-06 11:54 | 48.78747 | 14.42814 | 15327 ft | 362 kts | 202° |
| 2026-05-06 11:55 | 48.77147 | 14.41875 | 15535 ft | 370 kts | 202° |
| 2026-05-06 11:55 | 48.74722 | 14.40451 | 16070 ft | 374 kts | 202° |
| 2026-05-06 11:55 | 48.72292 | 14.39019 | 16785 ft | 374 kts | 202° |
| 2026-05-06 11:55 | 48.69895 | 14.37604 | 17457 ft | 375 kts | 202° |
| 2026-05-06 11:56 | 48.67418 | 14.36142 | 18067 ft | 379 kts | 202° |
| 2026-05-06 11:56 | 48.64162 | 14.34226 | 18809 ft | 380 kts | 202° |
| 2026-05-06 11:56 | 48.62525 | 14.33239 | 19131 ft | 382 kts | 206° |
| 2026-05-06 11:56 | 48.60302 | 14.31031 | 19589 ft | 384 kts | 223° |
| 2026-05-06 11:57 | 48.58633 | 14.27952 | 20105 ft | 387 kts | 237° |
| 2026-05-06 11:57 | 48.57475 | 14.24254 | 20618 ft | 393 kts | 248° |
| 2026-05-06 11:57 | 48.56965 | 14.20158 | 21085 ft | 404 kts | 263° |
| 2026-05-06 11:57 | 48.56994 | 14.15894 | 21629 ft | 408 kts | 267° |
| 2026-05-06 11:58 | 48.57115 | 14.11589 | 22104 ft | 411 kts | 268° |
| 2026-05-06 11:58 | 48.57257 | 14.07263 | 22558 ft | 414 kts | 268° |
| 2026-05-06 11:58 | 48.57393 | 14.02901 | 22997 ft | 417 kts | 268° |
| 2026-05-06 11:58 | 48.57515 | 13.98504 | 23373 ft | 420 kts | 267° |
| 2026-05-06 11:59 | 48.57625 | 13.94076 | 23684 ft | 424 kts | 267° |
| 2026-05-06 11:59 | 48.57727 | 13.89609 | 23788 ft | 427 kts | 267° |
| 2026-05-06 11:59 | 48.57823 | 13.85107 | 23800 ft | 430 kts | 267° |
| 2026-05-06 11:59 | 48.57917 | 13.80606 | 23802 ft | 427 kts | 267° |
| 2026-05-06 12:00 | 48.58009 | 13.76141 | 23803 ft | 426 kts | 267° |
| 2026-05-06 12:00 | 48.58099 | 13.71659 | 23804 ft | 426 kts | 267° |
| 2026-05-06 12:00 | 48.58187 | 13.67203 | 23797 ft | 426 kts | 267° |
| 2026-05-06 12:00 | 48.58274 | 13.62728 | 23801 ft | 426 kts | 267° |
| 2026-05-06 12:01 | 48.58358 | 13.58266 | 23800 ft | 426 kts | 266° |
| 2026-05-06 12:01 | 48.58460 | 13.53849 | 23801 ft | 427 kts | 269° |
| 2026-05-06 12:01 | 48.58874 | 13.49374 | 23794 ft | 433 kts | 276° |
| 2026-05-06 12:01 | 48.59722 | 13.44979 | 23800 ft | 439 kts | 283° |
| 2026-05-06 12:02 | 48.60470 | 13.40547 | 23789 ft | 431 kts | 272° |
| 2026-05-06 12:02 | 48.60585 | 13.36057 | 23685 ft | 428 kts | 263° |
| 2026-05-06 12:02 | 48.60228 | 13.31621 | 23178 ft | 423 kts | 255° |
| 2026-05-06 12:02 | 48.59700 | 13.27266 | 22663 ft | 418 kts | 256° |
| 2026-05-06 12:03 | 48.59219 | 13.22971 | 22151 ft | 413 kts | 256° |
| 2026-05-06 12:03 | 48.58760 | 13.18698 | 21662 ft | 412 kts | 256° |
| 2026-05-06 12:03 | 48.58310 | 13.14429 | 21159 ft | 410 kts | 257° |
| 2026-05-06 12:03 | 48.57863 | 13.10180 | 20671 ft | 409 kts | 257° |
| 2026-05-06 12:04 | 48.57415 | 13.05945 | 20201 ft | 407 kts | 257° |
| 2026-05-06 12:04 | 48.56967 | 13.01726 | 19737 ft | 406 kts | 257° |
| 2026-05-06 12:04 | 48.56518 | 12.97521 | 19254 ft | 405 kts | 257° |
| 2026-05-06 12:04 | 48.56070 | 12.93338 | 18779 ft | 403 kts | 257° |
| 2026-05-06 12:05 | 48.55621 | 12.89168 | 18306 ft | 401 kts | 257° |
| 2026-05-06 12:05 | 48.55174 | 12.85036 | 17809 ft | 398 kts | 257° |
| 2026-05-06 12:05 | 48.54729 | 12.80929 | 17281 ft | 396 kts | 257° |
| 2026-05-06 12:05 | 48.54281 | 12.76819 | 16745 ft | 393 kts | 257° |
| 2026-05-06 12:06 | 48.53840 | 12.72777 | 16223 ft | 390 kts | 257° |
| 2026-05-06 12:06 | 48.53398 | 12.68749 | 15692 ft | 387 kts | 257° |
| 2026-05-06 12:06 | 48.52959 | 12.64766 | 15160 ft | 383 kts | 257° |
| 2026-05-06 12:06 | 48.52525 | 12.60833 | 14645 ft | 377 kts | 257° |
| 2026-05-06 12:07 | 48.52097 | 12.56960 | 14133 ft | 371 kts | 257° |
| 2026-05-06 12:07 | 48.51674 | 12.53149 | 13664 ft | 365 kts | 257° |
| 2026-05-06 12:07 | 48.51257 | 12.49408 | 13134 ft | 360 kts | 257° |
| 2026-05-06 12:07 | 48.50848 | 12.45739 | 12941 ft | 347 kts | 257° |
| 2026-05-06 12:08 | 48.50455 | 12.42222 | 12839 ft | 333 kts | 257° |
| 2026-05-06 12:08 | 48.50076 | 12.38846 | 12750 ft | 320 kts | 257° |
| 2026-05-06 12:08 | 48.49710 | 12.35600 | 12661 ft | 308 kts | 257° |
| 2026-05-06 12:08 | 48.49393 | 12.32791 | 12495 ft | 302 kts | 257° |
| 2026-05-06 12:09 | 48.49037 | 12.29658 | 12146 ft | 300 kts | 257° |
| 2026-05-06 12:09 | 48.48683 | 12.26551 | 11710 ft | 301 kts | 257° |
| 2026-05-06 12:09 | 48.48328 | 12.23444 | 11342 ft | 300 kts | 257° |
| 2026-05-06 12:09 | 48.48037 | 12.20331 | 11006 ft | 300 kts | 260° |
| 2026-05-06 12:10 | 48.47803 | 12.17204 | 10613 ft | 301 kts | 261° |
| 2026-05-06 12:10 | 48.47583 | 12.14063 | 10213 ft | 302 kts | 261° |
| 2026-05-06 12:10 | 48.47361 | 12.10918 | 9869 ft | 301 kts | 261° |
| 2026-05-06 12:10 | 48.47145 | 12.07860 | 9778 ft | 288 kts | 261° |
| 2026-05-06 12:11 | 48.46930 | 12.04882 | 9560 ft | 284 kts | 261° |
| 2026-05-06 12:11 | 48.46714 | 12.01941 | 9290 ft | 282 kts | 261° |
| 2026-05-06 12:11 | 48.46496 | 11.98996 | 8961 ft | 282 kts | 261° |
| 2026-05-06 12:11 | 48.46276 | 11.96058 | 8659 ft | 282 kts | 261° |
| 2026-05-06 12:12 | 48.46057 | 11.93135 | 8390 ft | 279 kts | 261° |
| 2026-05-06 12:12 | 48.45840 | 11.90240 | 8110 ft | 277 kts | 261° |
| 2026-05-06 12:12 | 48.45622 | 11.87373 | 7849 ft | 274 kts | 261° |
| 2026-05-06 12:12 | 48.45405 | 11.84537 | 7531 ft | 273 kts | 261° |
| 2026-05-06 12:13 | 48.45186 | 11.81684 | 7239 ft | 274 kts | 261° |
| 2026-05-06 12:13 | 48.44971 | 11.78875 | 7021 ft | 273 kts | 261° |
| 2026-05-06 12:13 | 48.44752 | 11.76028 | 6778 ft | 274 kts | 261° |
| 2026-05-06 12:13 | 48.44531 | 11.73174 | 6509 ft | 273 kts | 261° |
| 2026-05-06 12:14 | 48.44312 | 11.70337 | 6260 ft | 272 kts | 262° |
| 2026-05-06 12:14 | 48.44093 | 11.67520 | 5982 ft | 269 kts | 262° |
| 2026-05-06 12:14 | 48.43876 | 11.64723 | 5710 ft | 268 kts | 262° |
| 2026-05-06 12:14 | 48.43659 | 11.61937 | 5428 ft | 267 kts | 261° |
| 2026-05-06 12:15 | 48.43444 | 11.59181 | 5249 ft | 263 kts | 261° |
| 2026-05-06 12:15 | 48.43243 | 11.56448 | 5107 ft | 262 kts | 263° |
| 2026-05-06 12:15 | 48.43066 | 11.53703 | 5028 ft | 264 kts | 263° |
| 2026-05-06 12:15 | 48.42891 | 11.50948 | 5000 ft | 263 kts | 263° |
| 2026-05-06 12:16 | 48.42719 | 11.48237 | 4923 ft | 265 kts | 263° |
| 2026-05-06 12:16 | 48.42542 | 11.45452 | 4770 ft | 268 kts | 263° |
| 2026-05-06 12:16 | 48.42355 | 11.42665 | 4624 ft | 267 kts | 262° |
| 2026-05-06 12:16 | 48.42039 | 11.39936 | 4436 ft | 261 kts | 245° |
| 2026-05-06 12:17 | 48.40931 | 11.37894 | 4278 ft | 250 kts | 209° |
| 2026-05-06 12:17 | 48.39334 | 11.37291 | 4174 ft | 233 kts | 172° |
| 2026-05-06 12:17 | 48.37944 | 11.38259 | 4036 ft | 215 kts | 132° |
| 2026-05-06 12:17 | 48.37240 | 11.40115 | 4018 ft | 199 kts | 114° |
| 2026-05-06 12:18 | 48.36671 | 11.42001 | 4009 ft | 195 kts | 114° |
| 2026-05-06 12:18 | 48.36139 | 11.43779 | 3986 ft | 184 kts | 114° |
| 2026-05-06 12:18 | 48.35619 | 11.45517 | 3982 ft | 180 kts | 114° |
| 2026-05-06 12:18 | 48.35109 | 11.47229 | 3985 ft | 181 kts | 114° |
| 2026-05-06 12:19 | 48.34600 | 11.48932 | 4014 ft | 178 kts | 113° |
| 2026-05-06 12:19 | 48.34419 | 11.50756 | 4004 ft | 175 kts | 86° |
| 2026-05-06 12:19 | 48.34487 | 11.52577 | 3986 ft | 176 kts | 88° |
| 2026-05-06 12:19 | 48.34577 | 11.54433 | 3996 ft | 180 kts | 84° |
| 2026-05-06 12:20 | 48.34727 | 11.56294 | 3995 ft | 179 kts | 84° |
| 2026-05-06 12:20 | 48.34872 | 11.58133 | 3907 ft | 178 kts | 84° |
| 2026-05-06 12:20 | 48.35015 | 11.60010 | 3666 ft | 182 kts | 83° |
| 2026-05-06 12:20 | 48.35155 | 11.61880 | 3459 ft | 179 kts | 84° |
| 2026-05-06 12:21 | 48.35304 | 11.63734 | 3224 ft | 178 kts | 82° |
| 2026-05-06 12:21 | 48.35442 | 11.65538 | 3019 ft | 168 kts | 86° |
| 2026-05-06 12:21 | 48.35555 | 11.67266 | 2784 ft | 159 kts | 83° |
| 2026-05-06 12:21 | 48.35679 | 11.68894 | 2575 ft | 159 kts | 83° |
| 2026-05-06 12:22 | 48.35807 | 11.70556 | 2338 ft | 161 kts | 82° |
| 2026-05-06 12:22 | 48.35937 | 11.72201 | 2110 ft | 157 kts | 81° |
| 2026-05-06 12:22 | 48.36055 | 11.73837 | 1889 ft | 158 kts | 82° |
| 2026-05-06 12:22 | 48.36180 | 11.75464 | 1662 ft | 155 kts | 81° |
| 2026-05-06 12:23 | 48.36300 | 11.77038 | 1484 ft | 146 kts | 81° |
| 2026-05-06 12:23 | 48.36406 | 11.78415 | 1462 ft | 115 kts | 83° |
| 2026-05-06 12:23 | 48.36480 | 11.79389 | 1467 ft | 73 kts | 84° |
| 2026-05-06 12:23 | 48.36494 | 11.80016 | 1461 ft | 54 kts | 108° |
| 2026-05-06 12:24 | 48.36391 | 11.80392 | 1460 ft | 15 kts | 112° |
| 2026-05-06 12:24 | 48.36381 | 11.80426 | 1466 ft | 0 kts | 113° |
| 2026-05-06 12:25 | 48.36381 | 11.80428 | 1466 ft | 1 kts | 113° |
| 2026-05-06 12:25 | 48.36373 | 11.80454 | 1460 ft | 4 kts | 113° |
| 2026-05-06 12:26 | 48.36357 | 11.80511 | 1463 ft | 8 kts | 116° |
| 2026-05-06 12:26 | 48.36311 | 11.80552 | 1463 ft | 9 kts | 213° |
| 2026-05-06 12:26 | 48.36296 | 11.80448 | 1467 ft | 12 kts | 283° |
| 2026-05-06 12:26 | 48.36280 | 11.80318 | 1461 ft | 14 kts | 258° |
| 2026-05-06 12:27 | 48.36267 | 11.80158 | 1464 ft | 17 kts | 262° |
| 2026-05-06 12:27 | 48.36251 | 11.79973 | 1467 ft | 19 kts | 263° |
| 2026-05-06 12:27 | 48.36237 | 11.79766 | 1459 ft | 21 kts | 263° |
| 2026-05-06 12:27 | 48.36219 | 11.79540 | 1467 ft | 23 kts | 263° |
| 2026-05-06 12:28 | 48.36200 | 11.79292 | 1467 ft | 25 kts | 263° |
| 2026-05-06 12:28 | 48.36180 | 11.79026 | 1467 ft | 26 kts | 262° |
| 2026-05-06 12:28 | 48.36159 | 11.78748 | 1463 ft | 26 kts | 264° |
| 2026-05-06 12:28 | 48.36137 | 11.78485 | 1466 ft | 25 kts | 264° |
| 2026-05-06 12:29 | 48.36120 | 11.78236 | 1462 ft | 23 kts | 263° |
| 2026-05-06 12:29 | 48.36100 | 11.78001 | 1466 ft | 22 kts | 263° |
| 2026-05-06 12:29 | 48.36083 | 11.77781 | 1466 ft | 18 kts | 263° |
| 2026-05-06 12:29 | 48.36032 | 11.77665 | 1463 ft | 14 kts | 182° |
| 2026-05-06 12:30 | 48.35934 | 11.77680 | 1466 ft | 14 kts | 172° |
| 2026-05-06 12:30 | 48.35840 | 11.77697 | 1465 ft | 13 kts | 173° |
| 2026-05-06 12:30 | 48.35748 | 11.77710 | 1462 ft | 13 kts | 174° |
| 2026-05-06 12:30 | 48.35660 | 11.77727 | 1465 ft | 13 kts | 171° |
| 2026-05-06 12:31 | 48.35574 | 11.77740 | 1462 ft | 12 kts | 172° |
| 2026-05-06 12:31 | 48.35495 | 11.77755 | 1456 ft | 11 kts | 173° |
| 2026-05-06 12:31 | 48.35471 | 11.77733 | 1465 ft | 3 kts | 259° |
| 2026-05-06 12:31 | 48.35467 | 11.77700 | 1465 ft | 3 kts | 262° |
| 2026-05-06 12:32 | 48.35465 | 11.77671 | 1465 ft | 2 kts | 264° |
| 2026-05-06 12:32 | 48.35464 | 11.77659 | 1465 ft | 0 kts | 263° |